sensor_id;sensor_type;location;lat;lon;timestamp;pressure;altitude;pressure_sealevel;temperature;humidity
73817;BME280;62146;53.232;-1.304;2022-08-11T00:01:56;101216.13;;;24.22;54.24
73817;BME280;62146;53.232;-1.304;2022-08-11T00:04:25;101216.22;;;24.18;54.24
73817;BME280;62146;53.232;-1.304;2022-08-11T00:06:53;101221.66;;;24.18;54.24
73817;BME280;62146;53.232;-1.304;2022-08-11T00:09:23;101219.91;;;24.00;54.63
73817;BME280;62146;53.232;-1.304;2022-08-11T00:12:13;101214.97;;;24.02;54.63
73817;BME280;62146;53.232;-1.304;2022-08-11T00:14:41;101221.72;;;23.91;54.79
73817;BME280;62146;53.232;-1.304;2022-08-11T00:17:11;101217.22;;;23.87;54.91
73817;BME280;62146;53.232;-1.304;2022-08-11T00:19:43;101212.34;;;23.75;55.21
73817;BME280;62146;53.232;-1.304;2022-08-11T00:22:31;101207.56;;;23.72;55.14
73817;BME280;62146;53.232;-1.304;2022-08-11T00:24:59;101212.50;;;23.57;55.68
73817;BME280;62146;53.232;-1.304;2022-08-11T00:27:36;101214.00;;;23.63;55.54
73817;BME280;62146;53.232;-1.304;2022-08-11T00:30:05;101207.47;;;23.64;55.53
73817;BME280;62146;53.232;-1.304;2022-08-11T00:32:33;101198.78;;;23.54;55.67
73817;BME280;62146;53.232;-1.304;2022-08-11T00:35:01;101204.38;;;23.57;55.72
73817;BME280;62146;53.232;-1.304;2022-08-11T00:37:50;101202.75;;;23.56;55.59
73817;BME280;62146;53.232;-1.304;2022-08-11T00:40:32;101195.56;;;23.52;56.02
73817;BME280;62146;53.232;-1.304;2022-08-11T00:43:16;101203.56;;;23.43;55.90
73817;BME280;62146;53.232;-1.304;2022-08-11T00:46:10;101199.97;;;23.48;55.82
73817;BME280;62146;53.232;-1.304;2022-08-11T00:54:38;101193.16;;;23.10;57.18
73817;BME280;62146;53.232;-1.304;2022-08-11T01:00:21;101196.19;;;23.09;56.91
73817;BME280;62146;53.232;-1.304;2022-08-11T01:23:29;101194.88;;;22.80;57.73
73817;BME280;62146;53.232;-1.304;2022-08-11T01:32:06;101196.81;;;22.48;58.84
73817;BME280;62146;53.232;-1.304;2022-08-11T01:46:19;101194.47;;;22.42;59.61
73817;BME280;62146;53.232;-1.304;2022-08-11T01:49:09;101195.47;;;22.46;59.12
73817;BME280;62146;53.232;-1.304;2022-08-11T01:52:20;101188.16;;;22.33;59.38
73817;BME280;62146;53.232;-1.304;2022-08-11T02:03:49;101191.31;;;22.22;59.76
73817;BME280;62146;53.232;-1.304;2022-08-11T02:06:33;101194.25;;;22.25;59.73
73817;BME280;62146;53.232;-1.304;2022-08-11T02:12:37;101186.97;;;22.07;60.42
73817;BME280;62146;53.232;-1.304;2022-08-11T02:15:29;101187.75;;;22.08;60.40
73817;BME280;62146;53.232;-1.304;2022-08-11T02:20:42;101182.06;;;21.91;61.43
73817;BME280;62146;53.232;-1.304;2022-08-11T02:26:56;101183.00;;;21.82;61.73
73817;BME280;62146;53.232;-1.304;2022-08-11T02:29:41;101190.84;;;21.83;61.66
73817;BME280;62146;53.232;-1.304;2022-08-11T02:35:41;101187.78;;;21.90;61.44
73817;BME280;62146;53.232;-1.304;2022-08-11T02:38:17;101186.22;;;21.84;61.51
73817;BME280;62146;53.232;-1.304;2022-08-11T02:47:08;101186.38;;;21.74;62.16
73817;BME280;62146;53.232;-1.304;2022-08-11T02:50:07;101185.28;;;21.75;61.93
73817;BME280;62146;53.232;-1.304;2022-08-11T02:53:08;101185.00;;;21.76;62.05
73817;BME280;62146;53.232;-1.304;2022-08-11T02:56:44;101191.06;;;21.69;62.25
73817;BME280;62146;53.232;-1.304;2022-08-11T02:58:55;101188.88;;;21.71;62.48
73817;BME280;62146;53.232;-1.304;2022-08-11T03:13:36;101191.38;;;21.26;63.69
73817;BME280;62146;53.232;-1.304;2022-08-11T03:16:57;101193.31;;;21.20;63.87
73817;BME280;62146;53.232;-1.304;2022-08-11T03:25:43;101193.03;;;21.22;63.47
73817;BME280;62146;53.232;-1.304;2022-08-11T03:28:33;101188.56;;;21.13;64.08
73817;BME280;62146;53.232;-1.304;2022-08-11T03:31:36;101189.72;;;21.07;63.96
73817;BME280;62146;53.232;-1.304;2022-08-11T03:34:12;101191.66;;;21.01;64.18
73817;BME280;62146;53.232;-1.304;2022-08-11T03:45:35;101195.59;;;20.91;65.30
73817;BME280;62146;53.232;-1.304;2022-08-11T03:51:28;101190.13;;;20.95;65.29
73817;BME280;62146;53.232;-1.304;2022-08-11T04:14:02;101192.91;;;20.91;66.70
73817;BME280;62146;53.232;-1.304;2022-08-11T04:20:01;101190.81;;;21.06;65.92
73817;BME280;62146;53.232;-1.304;2022-08-11T04:22:56;101192.06;;;20.90;66.68
73817;BME280;62146;53.232;-1.304;2022-08-11T04:29:02;101176.66;;;20.72;67.77
73817;BME280;62146;53.232;-1.304;2022-08-11T04:31:41;101187.25;;;20.64;68.11
73817;BME280;62146;53.232;-1.304;2022-08-11T04:34:34;101178.63;;;20.62;68.20
73817;BME280;62146;53.232;-1.304;2022-08-11T04:37:34;101180.41;;;20.71;67.90
73817;BME280;62146;53.232;-1.304;2022-08-11T04:48:57;101180.13;;;20.45;69.60
73817;BME280;62146;53.232;-1.304;2022-08-11T05:01:46;101181.94;;;20.54;69.73
73817;BME280;62146;53.232;-1.304;2022-08-11T05:12:33;101174.91;;;20.58;69.43
73817;BME280;62146;53.232;-1.304;2022-08-11T05:15:02;101185.47;;;20.50;69.94
73817;BME280;62146;53.232;-1.304;2022-08-11T05:17:57;101181.56;;;20.38;70.32
73817;BME280;62146;53.232;-1.304;2022-08-11T05:20:55;101180.69;;;20.42;69.89
73817;BME280;62146;53.232;-1.304;2022-08-11T05:23:46;101190.16;;;20.39;69.98
73817;BME280;62146;53.232;-1.304;2022-08-11T05:26:43;101195.25;;;20.41;69.87
73817;BME280;62146;53.232;-1.304;2022-08-11T05:29:44;101194.00;;;20.34;70.12
73817;BME280;62146;53.232;-1.304;2022-08-11T05:32:36;101196.56;;;20.43;69.63
73817;BME280;62146;53.232;-1.304;2022-08-11T05:35:35;101197.13;;;20.40;69.89
73817;BME280;62146;53.232;-1.304;2022-08-11T05:38:25;101191.09;;;20.25;70.51
73817;BME280;62146;53.232;-1.304;2022-08-11T05:41:12;101197.00;;;20.27;70.23
73817;BME280;62146;53.232;-1.304;2022-08-11T05:43:59;101202.53;;;20.40;69.73
73817;BME280;62146;53.232;-1.304;2022-08-11T05:46:48;101205.97;;;20.51;69.51
73817;BME280;62146;53.232;-1.304;2022-08-11T05:49:35;101211.84;;;20.58;69.28
73817;BME280;62146;53.232;-1.304;2022-08-11T05:52:25;101210.50;;;20.55;69.49
73817;BME280;62146;53.232;-1.304;2022-08-11T05:55:14;101207.25;;;20.58;69.55
73817;BME280;62146;53.232;-1.304;2022-08-11T05:58:03;101210.47;;;20.60;69.43
73817;BME280;62146;53.232;-1.304;2022-08-11T06:00:40;101211.56;;;20.59;69.65
73817;BME280;62146;53.232;-1.304;2022-08-11T06:03:08;101217.75;;;20.60;69.76
73817;BME280;62146;53.232;-1.304;2022-08-11T06:05:37;101212.09;;;20.61;69.93
73817;BME280;62146;53.232;-1.304;2022-08-11T06:08:11;101206.25;;;20.77;69.60
73817;BME280;62146;53.232;-1.304;2022-08-11T06:10:42;101205.38;;;20.82;69.78
73817;BME280;62146;53.232;-1.304;2022-08-11T06:13:14;101203.09;;;20.93;69.49
73817;BME280;62146;53.232;-1.304;2022-08-11T06:15:47;101201.78;;;20.91;69.15
73817;BME280;62146;53.232;-1.304;2022-08-11T06:18:14;101205.28;;;20.92;69.38
73817;BME280;62146;53.232;-1.304;2022-08-11T06:20:53;101200.63;;;20.97;69.33
73817;BME280;62146;53.232;-1.304;2022-08-11T06:23:23;101206.38;;;20.91;69.82
73817;BME280;62146;53.232;-1.304;2022-08-11T06:25:51;101204.06;;;20.79;70.18
73817;BME280;62146;53.232;-1.304;2022-08-11T06:28:30;101197.28;;;20.82;70.52
73817;BME280;62146;53.232;-1.304;2022-08-11T06:30:58;101201.59;;;20.83;70.45
73817;BME280;62146;53.232;-1.304;2022-08-11T06:33:33;101204.75;;;20.90;70.67
73817;BME280;62146;53.232;-1.304;2022-08-11T06:36:10;101203.69;;;20.91;70.86
73817;BME280;62146;53.232;-1.304;2022-08-11T06:39:03;101200.56;;;21.02;70.65
73817;BME280;62146;53.232;-1.304;2022-08-11T06:42:03;101185.66;;;21.27;69.51
73817;BME280;62146;53.232;-1.304;2022-08-11T06:44:39;101198.91;;;21.47;68.74
73817;BME280;62146;53.232;-1.304;2022-08-11T06:47:10;101202.59;;;21.56;68.54
73817;BME280;62146;53.232;-1.304;2022-08-11T06:49:42;101198.66;;;21.48;69.16
73817;BME280;62146;53.232;-1.304;2022-08-11T06:52:32;101199.91;;;21.56;69.09
73817;BME280;62146;53.232;-1.304;2022-08-11T06:55:10;101200.69;;;21.56;69.02
73817;BME280;62146;53.232;-1.304;2022-08-11T06:57:58;101196.31;;;21.60;68.96
73817;BME280;62146;53.232;-1.304;2022-08-11T07:00:55;101199.38;;;21.72;68.54
73817;BME280;62146;53.232;-1.304;2022-08-11T07:03:26;101196.91;;;21.75;68.85
73817;BME280;62146;53.232;-1.304;2022-08-11T07:06:01;101201.88;;;21.87;68.16
73817;BME280;62146;53.232;-1.304;2022-08-11T07:14:33;101199.09;;;22.10;67.10
73817;BME280;62146;53.232;-1.304;2022-08-11T07:17:27;101199.38;;;22.08;67.30
73817;BME280;62146;53.232;-1.304;2022-08-11T07:19:57;101196.06;;;22.11;67.46
73817;BME280;62146;53.232;-1.304;2022-08-11T07:22:49;101197.03;;;22.20;66.29
73817;BME280;62146;53.232;-1.304;2022-08-11T07:25:41;101189.09;;;22.24;66.38
73817;BME280;62146;53.232;-1.304;2022-08-11T07:28:33;101194.03;;;22.35;66.00
73817;BME280;62146;53.232;-1.304;2022-08-11T07:31:41;101192.97;;;22.36;66.38
73817;BME280;62146;53.232;-1.304;2022-08-11T07:37:03;101190.16;;;22.41;66.02
73817;BME280;62146;53.232;-1.304;2022-08-11T07:39:31;101188.78;;;22.43;65.52
73817;BME280;62146;53.232;-1.304;2022-08-11T07:42:06;101185.66;;;22.50;65.72
73817;BME280;62146;53.232;-1.304;2022-08-11T07:44:34;101185.59;;;22.55;65.11
73817;BME280;62146;53.232;-1.304;2022-08-11T07:47:22;101180.88;;;22.60;65.17
73817;BME280;62146;53.232;-1.304;2022-08-11T07:50:08;101179.41;;;22.67;64.92
73817;BME280;62146;53.232;-1.304;2022-08-11T07:52:57;101177.50;;;22.68;64.72
73817;BME280;62146;53.232;-1.304;2022-08-11T07:55:25;101176.31;;;22.74;64.73
73817;BME280;62146;53.232;-1.304;2022-08-11T07:58:19;101180.53;;;22.80;64.68
73817;BME280;62146;53.232;-1.304;2022-08-11T08:01:20;101176.72;;;22.81;64.74
73817;BME280;62146;53.232;-1.304;2022-08-11T08:04:08;101172.03;;;22.86;64.40
73817;BME280;62146;53.232;-1.304;2022-08-11T08:06:55;101179.44;;;22.94;64.60
73817;BME280;62146;53.232;-1.304;2022-08-11T08:09:42;101170.28;;;23.30;67.04
73817;BME280;62146;53.232;-1.304;2022-08-11T08:12:29;101181.09;;;23.56;66.79
73817;BME280;62146;53.232;-1.304;2022-08-11T08:15:16;101171.81;;;23.70;65.86
73817;BME280;62146;53.232;-1.304;2022-08-11T08:18:02;101179.22;;;23.78;65.07
73817;BME280;62146;53.232;-1.304;2022-08-11T08:20:51;101172.31;;;23.94;64.89
73817;BME280;62146;53.232;-1.304;2022-08-11T08:23:22;101174.81;;;24.04;64.81
73817;BME280;62146;53.232;-1.304;2022-08-11T08:26:05;101178.91;;;24.15;64.34
73817;BME280;62146;53.232;-1.304;2022-08-11T08:28:57;101179.56;;;24.20;64.32
73817;BME280;62146;53.232;-1.304;2022-08-11T08:31:47;101175.00;;;24.29;64.63
73817;BME280;62146;53.232;-1.304;2022-08-11T08:34:15;101178.25;;;24.39;64.63
73817;BME280;62146;53.232;-1.304;2022-08-11T08:36:45;101178.00;;;24.49;65.03
73817;BME280;62146;53.232;-1.304;2022-08-11T08:39:12;101181.56;;;24.58;63.52
73817;BME280;62146;53.232;-1.304;2022-08-11T08:41:41;101179.06;;;24.70;62.67
73817;BME280;62146;53.232;-1.304;2022-08-11T08:44:11;101177.69;;;24.80;62.88
73817;BME280;62146;53.232;-1.304;2022-08-11T08:47:02;101175.03;;;24.97;62.92
73817;BME280;62146;53.232;-1.304;2022-08-11T08:49:34;101168.56;;;25.15;61.40
73817;BME280;62146;53.232;-1.304;2022-08-11T08:52:07;101169.53;;;25.35;60.64
73817;BME280;62146;53.232;-1.304;2022-08-11T08:54:57;101175.53;;;25.54;59.26
73817;BME280;62146;53.232;-1.304;2022-08-11T08:57:28;101171.03;;;25.66;57.47
73817;BME280;62146;53.232;-1.304;2022-08-11T09:00:06;101169.13;;;25.92;57.00
73817;BME280;62146;53.232;-1.304;2022-08-11T09:02:38;101171.22;;;26.11;55.73
73817;BME280;62146;53.232;-1.304;2022-08-11T09:05:06;101166.88;;;26.36;56.85
73817;BME280;62146;53.232;-1.304;2022-08-11T09:07:36;101156.22;;;26.59;55.96
73817;BME280;62146;53.232;-1.304;2022-08-11T09:10:08;101152.31;;;26.77;54.21
73817;BME280;62146;53.232;-1.304;2022-08-11T09:12:38;101147.94;;;26.92;53.89
73817;BME280;62146;53.232;-1.304;2022-08-11T09:15:07;101151.00;;;27.19;54.96
73817;BME280;62146;53.232;-1.304;2022-08-11T09:17:40;101152.63;;;27.41;53.85
73817;BME280;62146;53.232;-1.304;2022-08-11T09:20:17;101145.88;;;27.46;51.86
73817;BME280;62146;53.232;-1.304;2022-08-11T09:22:46;101145.28;;;27.61;52.47
73817;BME280;62146;53.232;-1.304;2022-08-11T09:25:57;101144.19;;;27.74;51.36
73817;BME280;62146;53.232;-1.304;2022-08-11T09:28:45;101148.13;;;27.85;48.91
73817;BME280;62146;53.232;-1.304;2022-08-11T09:31:13;101144.97;;;27.95;48.80
73817;BME280;62146;53.232;-1.304;2022-08-11T09:33:41;101143.16;;;28.19;49.57
73817;BME280;62146;53.232;-1.304;2022-08-11T09:36:11;101140.47;;;28.30;49.90
73817;BME280;62146;53.232;-1.304;2022-08-11T09:38:57;101138.91;;;28.41;48.44
73817;BME280;62146;53.232;-1.304;2022-08-11T09:41:44;101140.28;;;28.47;46.67
73817;BME280;62146;53.232;-1.304;2022-08-11T09:44:27;101140.91;;;28.64;47.91
73817;BME280;62146;53.232;-1.304;2022-08-11T09:47:22;101130.41;;;28.78;46.59
73817;BME280;62146;53.232;-1.304;2022-08-11T09:49:52;101129.44;;;29.06;48.75
73817;BME280;62146;53.232;-1.304;2022-08-11T09:52:21;101122.13;;;29.22;47.02
73817;BME280;62146;53.232;-1.304;2022-08-11T09:54:49;101128.59;;;29.29;44.42
73817;BME280;62146;53.232;-1.304;2022-08-11T09:57:20;101125.22;;;29.47;44.21
73817;BME280;62146;53.232;-1.304;2022-08-11T10:00:08;101121.38;;;29.60;42.46
73817;BME280;62146;53.232;-1.304;2022-08-11T10:02:45;101112.75;;;29.73;42.60
73817;BME280;62146;53.232;-1.304;2022-08-11T10:05:16;101117.50;;;29.88;44.12
73817;BME280;62146;53.232;-1.304;2022-08-11T10:08:03;101109.88;;;30.09;43.12
73817;BME280;62146;53.232;-1.304;2022-08-11T10:10:34;101104.78;;;30.22;42.79
73817;BME280;62146;53.232;-1.304;2022-08-11T10:13:05;101103.41;;;30.43;42.58
73817;BME280;62146;53.232;-1.304;2022-08-11T10:15:54;101111.00;;;30.65;42.18
73817;BME280;62146;53.232;-1.304;2022-08-11T10:18:42;101105.63;;;30.69;40.79
73817;BME280;62146;53.232;-1.304;2022-08-11T10:24:06;101108.59;;;31.09;37.72
73817;BME280;62146;53.232;-1.304;2022-08-11T10:26:54;101110.63;;;31.12;36.78
73817;BME280;62146;53.232;-1.304;2022-08-11T10:29:27;101105.69;;;31.36;37.47
73817;BME280;62146;53.232;-1.304;2022-08-11T10:32:24;101112.00;;;31.55;38.03
73817;BME280;62146;53.232;-1.304;2022-08-11T10:35:26;101097.88;;;31.72;36.06
73817;BME280;62146;53.232;-1.304;2022-08-11T10:37:54;101099.25;;;31.81;37.48
73817;BME280;62146;53.232;-1.304;2022-08-11T10:40:44;101102.63;;;31.94;35.98
73817;BME280;62146;53.232;-1.304;2022-08-11T10:43:12;101103.94;;;32.18;35.90
73817;BME280;62146;53.232;-1.304;2022-08-11T10:46:00;101104.47;;;32.27;36.57
73817;BME280;62146;53.232;-1.304;2022-08-11T10:48:56;101091.84;;;32.23;33.72
73817;BME280;62146;53.232;-1.304;2022-08-11T10:51:25;101097.69;;;32.21;34.47
73817;BME280;62146;53.232;-1.304;2022-08-11T10:54:20;101098.53;;;32.25;32.92
73817;BME280;62146;53.232;-1.304;2022-08-11T10:57:06;101094.34;;;32.53;32.79
73817;BME280;62146;53.232;-1.304;2022-08-11T11:00:04;101090.97;;;32.85;31.50
73817;BME280;62146;53.232;-1.304;2022-08-11T11:02:33;101088.78;;;32.97;31.27
73817;BME280;62146;53.232;-1.304;2022-08-11T11:05:13;101083.88;;;33.10;31.03
73817;BME280;62146;53.232;-1.304;2022-08-11T11:07:51;101083.03;;;33.06;30.86
73817;BME280;62146;53.232;-1.304;2022-08-11T11:10:20;101080.75;;;33.37;31.14
73817;BME280;62146;53.232;-1.304;2022-08-11T11:12:53;101083.16;;;33.67;30.91
73817;BME280;62146;53.232;-1.304;2022-08-11T11:15:41;101080.19;;;33.82;31.25
73817;BME280;62146;53.232;-1.304;2022-08-11T11:18:33;101073.38;;;34.09;30.65
73817;BME280;62146;53.232;-1.304;2022-08-11T11:21:05;101069.72;;;34.37;30.79
73817;BME280;62146;53.232;-1.304;2022-08-11T11:23:38;101072.63;;;34.51;30.60
73817;BME280;62146;53.232;-1.304;2022-08-11T11:26:32;101079.06;;;34.65;30.80
73817;BME280;62146;53.232;-1.304;2022-08-11T11:32:16;101070.19;;;34.89;30.03
73817;BME280;62146;53.232;-1.304;2022-08-11T11:37:38;101069.41;;;35.55;29.19
73817;BME280;62146;53.232;-1.304;2022-08-11T11:40:24;101069.47;;;35.65;28.96
73817;BME280;62146;53.232;-1.304;2022-08-11T11:42:58;101070.31;;;35.87;28.41
73817;BME280;62146;53.232;-1.304;2022-08-11T11:45:25;101066.47;;;36.15;28.24
73817;BME280;62146;53.232;-1.304;2022-08-11T11:47:53;101070.78;;;36.09;28.12
73817;BME280;62146;53.232;-1.304;2022-08-11T11:50:35;101064.09;;;36.38;28.06
73817;BME280;62146;53.232;-1.304;2022-08-11T11:53:07;101063.34;;;36.54;27.79
73817;BME280;62146;53.232;-1.304;2022-08-11T11:55:36;101067.28;;;36.43;27.53
73817;BME280;62146;53.232;-1.304;2022-08-11T11:58:03;101059.41;;;36.48;27.25
73817;BME280;62146;53.232;-1.304;2022-08-11T12:00:51;101056.19;;;36.36;26.30
73817;BME280;62146;53.232;-1.304;2022-08-11T12:03:38;101052.28;;;36.65;26.78
73817;BME280;62146;53.232;-1.304;2022-08-11T12:06:07;101048.69;;;36.33;26.60
73817;BME280;62146;53.232;-1.304;2022-08-11T12:08:35;101046.75;;;36.68;27.00
73817;BME280;62146;53.232;-1.304;2022-08-11T12:11:05;101046.69;;;37.06;27.31
73817;BME280;62146;53.232;-1.304;2022-08-11T12:13:52;101043.41;;;37.45;27.33
73817;BME280;62146;53.232;-1.304;2022-08-11T12:16:20;101031.84;;;37.64;26.03
73817;BME280;62146;53.232;-1.304;2022-08-11T12:19:10;101034.75;;;37.40;26.63
73817;BME280;62146;53.232;-1.304;2022-08-11T12:21:39;101022.44;;;37.44;25.91
73817;BME280;62146;53.232;-1.304;2022-08-11T12:24:28;101032.94;;;37.83;25.76
73817;BME280;62146;53.232;-1.304;2022-08-11T12:27:14;101028.22;;;37.77;25.32
73817;BME280;62146;53.232;-1.304;2022-08-11T12:29:59;101033.41;;;37.65;25.16
73817;BME280;62146;53.232;-1.304;2022-08-11T12:32:29;101020.94;;;38.00;25.26
73817;BME280;62146;53.232;-1.304;2022-08-11T12:34:56;101022.91;;;38.00;25.06
73817;BME280;62146;53.232;-1.304;2022-08-11T12:37:34;101029.38;;;38.40;24.78
73817;BME280;62146;53.232;-1.304;2022-08-11T12:40:07;101025.78;;;38.43;24.64
73817;BME280;62146;53.232;-1.304;2022-08-11T12:43:16;101024.56;;;38.87;24.82
73817;BME280;62146;53.232;-1.304;2022-08-11T12:46:13;101022.00;;;38.70;24.06
73817;BME280;62146;53.232;-1.304;2022-08-11T12:48:43;101019.66;;;38.62;24.51
73817;BME280;62146;53.232;-1.304;2022-08-11T12:51:41;101017.00;;;38.91;24.22
73817;BME280;62146;53.232;-1.304;2022-08-11T12:54:59;101009.13;;;38.86;23.82
73817;BME280;62146;53.232;-1.304;2022-08-11T12:57:40;101009.38;;;38.98;23.74
73817;BME280;62146;53.232;-1.304;2022-08-11T13:00:27;101007.00;;;38.97;23.74
73817;BME280;62146;53.232;-1.304;2022-08-11T13:03:14;101006.22;;;38.96;24.32
73817;BME280;62146;53.232;-1.304;2022-08-11T13:06:03;101004.13;;;39.70;25.15
73817;BME280;62146;53.232;-1.304;2022-08-11T13:08:33;101005.28;;;40.92;24.50
73817;BME280;62146;53.232;-1.304;2022-08-11T13:11:03;101001.16;;;41.38;23.66
73817;BME280;62146;53.232;-1.304;2022-08-11T13:13:50;100992.16;;;41.85;23.71
73817;BME280;62146;53.232;-1.304;2022-08-11T13:16:27;100983.53;;;42.11;23.73
73817;BME280;62146;53.232;-1.304;2022-08-11T13:18:56;100986.78;;;42.25;23.16
73817;BME280;62146;53.232;-1.304;2022-08-11T13:21:25;100983.47;;;41.63;22.58
73817;BME280;62146;53.232;-1.304;2022-08-11T13:23:53;100985.63;;;40.80;23.17
73817;BME280;62146;53.232;-1.304;2022-08-11T13:26:33;100983.69;;;40.77;23.27
73817;BME280;62146;53.232;-1.304;2022-08-11T13:29:23;100978.94;;;41.15;22.66
73817;BME280;62146;53.232;-1.304;2022-08-11T13:31:52;100969.94;;;41.97;22.60
73817;BME280;62146;53.232;-1.304;2022-08-11T13:34:21;100968.88;;;41.21;22.10
73817;BME280;62146;53.232;-1.304;2022-08-11T13:36:51;100971.78;;;41.34;22.72
73817;BME280;62146;53.232;-1.304;2022-08-11T13:39:20;100959.56;;;41.28;22.59
73817;BME280;62146;53.232;-1.304;2022-08-11T13:41:50;100962.63;;;41.52;22.95
73817;BME280;62146;53.232;-1.304;2022-08-11T13:44:19;100957.19;;;41.96;22.69
73817;BME280;62146;53.232;-1.304;2022-08-11T13:46:53;100956.41;;;41.45;22.42
73817;BME280;62146;53.232;-1.304;2022-08-11T13:49:22;100959.22;;;41.61;22.31
73817;BME280;62146;53.232;-1.304;2022-08-11T13:51:49;100952.66;;;42.02;22.26
73817;BME280;62146;53.232;-1.304;2022-08-11T13:54:20;100956.94;;;42.38;21.85
73817;BME280;62146;53.232;-1.304;2022-08-11T13:56:49;100947.69;;;42.41;21.88
73817;BME280;62146;53.232;-1.304;2022-08-11T13:59:19;100944.84;;;41.97;21.39
73817;BME280;62146;53.232;-1.304;2022-08-11T14:01:58;100950.97;;;42.51;21.72
73817;BME280;62146;53.232;-1.304;2022-08-11T14:04:55;100951.44;;;42.34;21.24
73817;BME280;62146;53.232;-1.304;2022-08-11T14:07:26;100957.47;;;42.01;21.81
73817;BME280;62146;53.232;-1.304;2022-08-11T14:10:00;100946.09;;;42.08;21.79
73817;BME280;62146;53.232;-1.304;2022-08-11T14:12:33;100945.00;;;42.21;22.10
73817;BME280;62146;53.232;-1.304;2022-08-11T14:15:23;100952.31;;;42.47;21.59
73817;BME280;62146;53.232;-1.304;2022-08-11T14:17:56;100943.59;;;42.29;21.59
73817;BME280;62146;53.232;-1.304;2022-08-11T14:20:30;100937.44;;;42.50;21.20
73817;BME280;62146;53.232;-1.304;2022-08-11T14:23:19;100937.34;;;42.53;21.80
73817;BME280;62146;53.232;-1.304;2022-08-11T14:25:48;100938.72;;;42.77;21.44
73817;BME280;62146;53.232;-1.304;2022-08-11T14:28:33;100928.38;;;42.46;21.34
73817;BME280;62146;53.232;-1.304;2022-08-11T14:31:11;100935.91;;;42.33;21.93
73817;BME280;62146;53.232;-1.304;2022-08-11T14:33:40;100928.00;;;42.32;21.79
73817;BME280;62146;53.232;-1.304;2022-08-11T14:36:32;100919.69;;;42.72;22.12
73817;BME280;62146;53.232;-1.304;2022-08-11T14:39:03;100920.38;;;42.76;21.36
73817;BME280;62146;53.232;-1.304;2022-08-11T14:41:31;100922.81;;;43.02;21.20
73817;BME280;62146;53.232;-1.304;2022-08-11T14:44:38;100912.16;;;42.41;21.38
73817;BME280;62146;53.232;-1.304;2022-08-11T14:47:24;100914.97;;;42.69;20.84
73817;BME280;62146;53.232;-1.304;2022-08-11T14:49:54;100918.22;;;42.68;20.98
73817;BME280;62146;53.232;-1.304;2022-08-11T14:52:36;100910.19;;;42.54;21.11
73817;BME280;62146;53.232;-1.304;2022-08-11T14:55:04;100907.19;;;42.76;21.48
73817;BME280;62146;53.232;-1.304;2022-08-11T14:57:50;100910.34;;;42.91;20.73
73817;BME280;62146;53.232;-1.304;2022-08-11T15:00:22;100908.13;;;42.42;21.10
73817;BME280;62146;53.232;-1.304;2022-08-11T15:02:49;100900.03;;;42.47;21.02
73817;BME280;62146;53.232;-1.304;2022-08-11T15:05:47;100903.75;;;42.85;20.69
73817;BME280;62146;53.232;-1.304;2022-08-11T15:08:26;100901.59;;;43.17;20.68
73817;BME280;62146;53.232;-1.304;2022-08-11T15:11:14;100894.00;;;42.77;20.39
73817;BME280;62146;53.232;-1.304;2022-08-11T15:14:02;100891.91;;;43.46;21.83
73817;BME280;62146;53.232;-1.304;2022-08-11T15:16:29;100894.69;;;42.81;20.47
73817;BME280;62146;53.232;-1.304;2022-08-11T15:19:15;100882.13;;;43.99;20.59
73817;BME280;62146;53.232;-1.304;2022-08-11T15:21:48;100886.03;;;44.68;19.64
73817;BME280;62146;53.232;-1.304;2022-08-11T15:24:34;100888.38;;;44.70;19.55
73817;BME280;62146;53.232;-1.304;2022-08-11T15:27:10;100881.88;;;44.73;19.36
73817;BME280;62146;53.232;-1.304;2022-08-11T15:29:57;100882.09;;;45.08;19.51
73817;BME280;62146;53.232;-1.304;2022-08-11T15:32:59;100883.69;;;44.88;18.82
73817;BME280;62146;53.232;-1.304;2022-08-11T15:35:45;100875.25;;;44.67;19.17
73817;BME280;62146;53.232;-1.304;2022-08-11T15:38:31;100869.38;;;45.16;19.17
73817;BME280;62146;53.232;-1.304;2022-08-11T15:41:03;100872.16;;;45.46;18.70
73817;BME280;62146;53.232;-1.304;2022-08-11T15:43:52;100864.63;;;45.04;18.42
73817;BME280;62146;53.232;-1.304;2022-08-11T15:46:45;100861.81;;;45.25;19.17
73817;BME280;62146;53.232;-1.304;2022-08-11T15:49:32;100857.75;;;45.56;18.87
73817;BME280;62146;53.232;-1.304;2022-08-11T15:52:29;100860.50;;;45.47;18.87
73817;BME280;62146;53.232;-1.304;2022-08-11T15:54:58;100853.59;;;45.40;18.80
73817;BME280;62146;53.232;-1.304;2022-08-11T15:57:28;100843.88;;;45.23;18.68
73817;BME280;62146;53.232;-1.304;2022-08-11T16:00:14;100849.69;;;45.37;18.52
73817;BME280;62146;53.232;-1.304;2022-08-11T16:03:02;100841.84;;;45.23;18.67
73817;BME280;62146;53.232;-1.304;2022-08-11T16:05:48;100848.59;;;45.35;18.69
73817;BME280;62146;53.232;-1.304;2022-08-11T16:08:20;100845.41;;;45.24;18.83
73817;BME280;62146;53.232;-1.304;2022-08-11T16:10:59;100841.25;;;44.77;18.64
73817;BME280;62146;53.232;-1.304;2022-08-11T16:13:30;100842.50;;;44.76;18.71
73817;BME280;62146;53.232;-1.304;2022-08-11T16:15:59;100826.44;;;44.77;19.06
73817;BME280;62146;53.232;-1.304;2022-08-11T16:18:52;100845.25;;;44.67;19.23
73817;BME280;62146;53.232;-1.304;2022-08-11T16:21:29;100836.41;;;44.78;19.39
73817;BME280;62146;53.232;-1.304;2022-08-11T16:24:05;100832.78;;;44.90;19.14
73817;BME280;62146;53.232;-1.304;2022-08-11T16:26:34;100832.66;;;44.51;18.65
73817;BME280;62146;53.232;-1.304;2022-08-11T16:29:24;100839.94;;;44.27;19.32
73817;BME280;62146;53.232;-1.304;2022-08-11T16:31:51;100835.97;;;44.37;19.24
73817;BME280;62146;53.232;-1.304;2022-08-11T16:34:40;100833.44;;;44.51;19.30
73817;BME280;62146;53.232;-1.304;2022-08-11T16:37:27;100835.16;;;44.37;19.19
73817;BME280;62146;53.232;-1.304;2022-08-11T16:40:14;100827.41;;;44.40;18.96
73817;BME280;62146;53.232;-1.304;2022-08-11T16:42:43;100830.34;;;44.49;19.22
73817;BME280;62146;53.232;-1.304;2022-08-11T16:45:38;100826.53;;;44.65;19.05